Maasdam — PFRO — position and weather

sailwx.info

Track history (hours):
 
Tides and Currents Weather Stations Pressure Air Temp Water Temp Dewpoint Dewpoint Depression Visibility Wind Speed Wind Dir Waves Ship Positions

Maasdam

Operator: Holland America Line

Last reported at 2019-Aug-19 20:00 UTC. Time now 2019-Aug-20 09:31 UTC.
Position N 36°24' E 135°42'.

Type: Passenger vessel. MMSI: 244958000.

Wind from 180 at 18 knots

Barometer 1009.9 mb
Air temperature 24.0 ° C
Visibility: greater than 10.8 NM
Dewpoint 22.6 ° C
Water temperature 24.0 ° C

Date/timePositionNaut miles runAvg speedWind from/ knotsBaromVisibWave heightAir tempDewpointWater temp
2019-Aug-19 20:00N 36°24' E 135°42'1111.4 180 / 181009.910.8 24.022.624.0
2019-Aug-19 19:00N 36°18' E 135°30'1514.5 170 / 131009.810.8 24.022.624.0
2019-Aug-19 18:00N 36°18' E 135°12'1615.7 170 / 131009.410.8 24.022.624.0
2019-Aug-19 17:00N 36°12' E 134°54'1111.4 100 / 81009.810.8 24.022.624.0
2019-Aug-19 16:00N 36°06' E 134°42'3514.1 110 / 71009.610.8 24.022.624.0
2019-Aug-19 13:30N 35°58' E 133°60'15216.0
2019-Aug-19 04:00N 34°42' E 131°18'1211.6 090 / 101009.110.8 25.022.224.0
2019-Aug-19 03:00N 34°36' E 131°06'1211.6 060 / 71009.610.8 26.023.224.0
2019-Aug-19 02:00N 34°30' E 130°54'7010.0 100 / 61009.610.8 28.023.927.0
2019-Aug-18 19:00N 33°36' E 131°48'1918.7 090 / 101007.810.8 24.021.124.0
2019-Aug-18 18:00N 33°18' E 131°54'90 4.3 090 / 61008.110.8 24.021.124.0
2019-Aug-17 21:00N 33°24' E 133°42'36 8.9 320 / 51006.4 5.4 24.022.631.0
2019-Aug-17 17:00N 33°18' E 134°24'5170.2 240 / 131005.510.8 25.022.228.0
2019-Aug-17 16:58N 33°22' E 134°27'814.7
2019-Aug-17 16:24N 33°29' E 134°34'2 5.8
2019-Aug-17 16:00N 33°30' E 134°36'826.7 210 / 141005.410.8 25.022.228.0
2019-Aug-17 15:41N 33°37' E 134°42'314.7
2019-Aug-17 15:30N 33°39' E 134°44'814.5
2019-Aug-17 14:59N 33°44' E 134°51'714.4
2019-Aug-17 14:30N 33°50' E 134°56'814.8
2019-Aug-17 13:59N 33°57' E 134°55'714.6
2019-Aug-17 13:30N 34°04' E 134°55'714.3
2019-Aug-17 13:01N 34°11' E 134°57'611.5
2019-Aug-17 12:30N 34°17' E 134°59'510.5
2019-Aug-17 12:00N 34°22' E 135°00'714.6
2019-Aug-17 11:30N 34°27' E 135°06'816.0
2019-Aug-17 11:00N 34°33' E 135°13'612.7
2019-Aug-17 10:30N 34°39' E 135°16'4 7.2
2019-Aug-17 10:00N 34°41' E 135°12'0 0.2
2019-Aug-17 09:28N 34°41' E 135°12'0 0.0
2019-Aug-17 08:58N 34°41' E 135°12'0 0.0
2019-Aug-17 08:28N 34°41' E 135°12'0 0.0
2019-Aug-17 07:58N 34°41' E 135°12'0 0.0
2019-Aug-17 07:28N 34°41' E 135°12'0 0.0
2019-Aug-17 06:58N 34°41' E 135°12'0 0.0
2019-Aug-17 06:28N 34°41' E 135°12'0 0.0
2019-Aug-17 05:58N 34°41' E 135°12'0 0.0
2019-Aug-17 05:22N 34°41' E 135°12'0 0.0
2019-Aug-17 04:58N 34°41' E 135°12'0 0.0
2019-Aug-17 04:22N 34°41' E 135°12'0 0.0
2019-Aug-17 03:58N 34°41' E 135°12'0 0.0
2019-Aug-17 03:28N 34°41' E 135°12'0 0.0
2019-Aug-17 02:58N 34°41' E 135°12'0 0.0
2019-Aug-17 02:28N 34°41' E 135°12'0 0.0
2019-Aug-17 01:58N 34°41' E 135°12'0 0.0
2019-Aug-17 01:28N 34°41' E 135°12'0 0.0
2019-Aug-17 00:58N 34°41' E 135°12'0 0.0
2019-Aug-17 00:28N 34°41' E 135°12'0 0.0
2019-Aug-17 00:00N 34°41' E 135°12'0 0.0
2019-Aug-16 23:30N 34°41' E 135°12'0 0.0
2019-Aug-16 23:00N 34°41' E 135°12'0 0.0
2019-Aug-16 22:30N 34°41' E 135°12'2 5.0
2019-Aug-16 22:00N 34°40' E 135°15'5 9.0
2019-Aug-16 21:30N 34°36' E 135°16'815.4
2019-Aug-16 21:00N 34°30' E 135°11'815.4
2019-Aug-16 20:30N 34°24' E 135°05'815.5
2019-Aug-16 20:00N 34°18' E 134°59'157.3
2019-Aug-16 20:00N 34°18' E 135°00'816.6 190 / 151003.2 2.2 25.023.628.0
2019-Aug-16 19:30N 34°10' E 134°59'612.4
2019-Aug-16 19:00N 34°04' E 134°58'713.2
2019-Aug-16 18:30N 33°57' E 134°57'1213.6
2019-Aug-16 17:35N 33°45' E 134°60'2616.2
2019-Aug-16 16:00N 33°24' E 135°18'19114.7 220 / 171002.410.8 26.024.628.0
2019-Aug-16 03:00N 34°30' E 138°54'4012.4 200 / 301000.310.8 27.025.728.0
2019-Aug-15 23:48N 34°57' E 139°30'514.1
2019-Aug-15 23:27N 34°60' E 139°34'714.9
2019-Aug-15 23:00N 35°04' E 139°41'714.1
2019-Aug-15 22:30N 35°10' E 139°45'713.3
2019-Aug-15 22:00N 35°17' E 139°45'611.8
2019-Aug-15 21:30N 35°22' E 139°42'611.1
2019-Aug-15 21:00N 35°27' E 139°45'0 0.5
2019-Aug-15 20:29N 35°27' E 139°45'0 0.0
2019-Aug-15 19:59N 35°27' E 139°45'0 0.0
2019-Aug-15 19:26N 35°27' E 139°45'4 8.5
2019-Aug-15 19:00N 35°24' E 139°42'4619.2 180 / 40998.310.8 26.024.625.0
2019-Aug-15 18:59N 35°27' E 139°45'0 0.0
2019-Aug-15 18:29N 35°27' E 139°45'4 7.7
2019-Aug-15 18:00N 35°24' E 139°42'4618.4 180 / 30998.610.8 26.023.226.0
2019-Aug-15 17:59N 35°27' E 139°45'0 0.0
2019-Aug-15 17:29N 35°27' E 139°45'4 7.7
2019-Aug-15 17:00N 35°24' E 139°42'4619.9 180 / 35998.510.8 26.024.627.0
2019-Aug-15 16:59N 35°27' E 139°45'0 0.0
2019-Aug-15 16:29N 35°27' E 139°45'0 0.0
2019-Aug-15 15:59N 35°27' E 139°45'0 0.1
2019-Aug-15 15:29N 35°27' E 139°45'0 0.1
2019-Aug-15 14:59N 35°27' E 139°45'0 0.0
2019-Aug-15 14:29N 35°27' E 139°45'0 0.0
2019-Aug-15 13:59N 35°27' E 139°45'0 0.0
2019-Aug-15 13:29N 35°27' E 139°45'0 0.0
2019-Aug-15 12:59N 35°27' E 139°45'0 0.0
2019-Aug-15 12:29N 35°27' E 139°45'0 0.0
2019-Aug-15 11:59N 35°27' E 139°45'0 0.0
2019-Aug-15 11:29N 35°27' E 139°45'0 0.0
2019-Aug-15 10:59N 35°27' E 139°45'0 0.0
2019-Aug-15 10:29N 35°27' E 139°45'0 0.0
2019-Aug-15 09:59N 35°27' E 139°45'0 0.0
2019-Aug-15 09:29N 35°27' E 139°45'0 0.1
2019-Aug-15 08:59N 35°27' E 139°45'0 0.0
2019-Aug-15 08:29N 35°27' E 139°45'0 0.1
2019-Aug-15 07:59N 35°27' E 139°45'0 0.2
2019-Aug-15 07:29N 35°27' E 139°45'0 0.2
2019-Aug-15 06:59N 35°27' E 139°45'0 0.0
2019-Aug-15 06:29N 35°27' E 139°45'0 0.0
2019-Aug-15 05:59N 35°27' E 139°45'0 0.3
2019-Aug-15 05:30N 35°27' E 139°45'1 1.9
2019-Aug-15 04:58N 35°27' E 139°44'0 0.1
2019-Aug-15 04:28N 35°27' E 139°44'0 0.1
2019-Aug-15 03:58N 35°27' E 139°44'0 0.1
2019-Aug-15 03:28N 35°27' E 139°44'3 6.0
2019-Aug-15 03:00N 35°24' E 139°42'338.9 200 / 301003.510.8 28.025.329.0
2019-Aug-15 02:55N 35°27' E 139°44'0 0.0
2019-Aug-15 02:28N 35°27' E 139°44'3 6.0
2019-Aug-15 02:00N 35°24' E 139°42'3119.3 190 / 251003.810.8 28.025.329.0
2019-Aug-15 01:58N 35°27' E 139°44'0 0.0
2019-Aug-15 01:28N 35°26' E 139°44'0 0.1
2019-Aug-15 00:55N 35°27' E 139°44'0 0.1
2019-Aug-15 00:28N 35°27' E 139°44'0 0.0
2019-Aug-14 23:58N 35°27' E 139°44'0 0.1
2019-Aug-14 23:28N 35°27' E 139°44'0 0.1
2019-Aug-14 22:58N 35°27' E 139°44'0 0.0
2019-Aug-14 22:28N 35°27' E 139°44'0 0.1
2019-Aug-14 21:58N 35°27' E 139°44'0 0.0
2019-Aug-14 21:28N 35°27' E 139°44'0 0.0
2019-Aug-14 20:55N 35°27' E 139°44'0 0.0
2019-Aug-14 20:25N 35°27' E 139°44'0 0.0
2019-Aug-14 19:58N 35°27' E 139°44'0 0.0
2019-Aug-14 19:28N 35°27' E 139°44'3 6.0
2019-Aug-14 19:00N 35°24' E 139°42'3120.5 200 / 201004.910.8 27.024.329.0
2019-Aug-14 18:58N 35°27' E 139°44'0 0.0
2019-Aug-14 18:28N 35°27' E 139°44'3 6.0
2019-Aug-14 18:00N 35°24' E 139°42'3120.5 200 / 201005.010.8 27.024.329.0
2019-Aug-14 17:58N 35°27' E 139°44'0 0.0
2019-Aug-14 17:28N 35°27' E 139°44'0 0.0
2019-Aug-14 16:58N 35°27' E 139°44'0 0.0
2019-Aug-14 16:28N 35°27' E 139°44'0 0.0
2019-Aug-14 15:58N 35°27' E 139°44'0 0.0
2019-Aug-14 15:28N 35°27' E 139°44'0 0.0
2019-Aug-14 14:58N 35°27' E 139°44'0 0.0
2019-Aug-14 14:25N 35°27' E 139°44'0 0.0
2019-Aug-14 13:58N 35°27' E 139°44'1 1.9
2019-Aug-14 13:30N 35°26' E 139°43'3 6.3
2019-Aug-14 13:00N 35°27' E 139°39'0 0.2
2019-Aug-14 12:29N 35°27' E 139°39'0 0.0
2019-Aug-14 11:59N 35°27' E 139°39'0 0.0
2019-Aug-14 11:29N 35°27' E 139°39'0 0.0
2019-Aug-14 10:56N 35°27' E 139°39'0 0.0
2019-Aug-14 10:29N 35°27' E 139°39'0 0.0
2019-Aug-14 09:59N 35°27' E 139°39'0 0.0
2019-Aug-14 09:29N 35°27' E 139°39'0 0.0
2019-Aug-14 08:59N 35°27' E 139°39'0 0.0
2019-Aug-14 08:29N 35°27' E 139°39'0 0.0
2019-Aug-14 07:59N 35°27' E 139°39'0 0.0
2019-Aug-14 07:29N 35°27' E 139°39'0 0.0
2019-Aug-14 06:59N 35°27' E 139°39'0 0.0
2019-Aug-14 06:29N 35°27' E 139°39'0 0.0
2019-Aug-14 05:59N 35°27' E 139°39'0 0.0
2019-Aug-14 05:26N 35°27' E 139°39'0 0.0
2019-Aug-14 04:59N 35°27' E 139°39'0 0.0
2019-Aug-14 04:29N 35°27' E 139°39'0 0.0
2019-Aug-14 03:59N 35°27' E 139°39'0 0.0
2019-Aug-14 03:29N 35°27' E 139°39'0 0.0
2019-Aug-14 02:59N 35°27' E 139°39'0 0.0
2019-Aug-14 02:29N 35°27' E 139°39'0 0.0
2019-Aug-14 01:59N 35°27' E 139°39'0 0.0
2019-Aug-14 01:29N 35°27' E 139°39'0 0.0
2019-Aug-14 00:59N 35°27' E 139°39'0 0.0
2019-Aug-14 00:29N 35°27' E 139°39'0 0.0
2019-Aug-13 23:59N 35°27' E 139°39'0 0.0
2019-Aug-13 23:29N 35°27' E 139°39'0 0.0
2019-Aug-13 22:59N 35°27' E 139°39'0 0.0
2019-Aug-13 22:29N 35°27' E 139°39'0 0.0
2019-Aug-13 21:59N 35°27' E 139°39'0 0.0
2019-Aug-13 21:29N 35°27' E 139°39'0 0.0
2019-Aug-13 20:59N 35°27' E 139°39'0 0.0
2019-Aug-13 20:29N 35°27' E 139°39'0 0.0
2019-Aug-13 19:59N 35°27' E 139°39'0 0.0
2019-Aug-13 19:29N 35°27' E 139°39'0 0.0
2019-Aug-13 18:59N 35°27' E 139°39'0 0.0
2019-Aug-13 18:29N 35°27' E 139°39'0 0.0
2019-Aug-13 17:59N 35°27' E 139°39'0 0.0
2019-Aug-13 17:29N 35°27' E 139°39'0 0.0
2019-Aug-13 16:59N 35°27' E 139°39'0 0.0
2019-Aug-13 16:29N 35°27' E 139°39'0 0.0
2019-Aug-13 15:59N 35°27' E 139°39'0 0.0
2019-Aug-13 15:29N 35°27' E 139°39'0 0.0
2019-Aug-13 14:59N 35°27' E 139°39'0 0.0
2019-Aug-13 14:30N 35°27' E 139°39'1 1.4
2019-Aug-13 14:00N 35°27' E 139°40'3 6.5
2019-Aug-13 13:30N 35°26' E 139°43'3 5.6
2019-Aug-13 13:00N 35°23' E 139°43'510.7
2019-Aug-13 12:30N 35°18' E 139°45'611.6
2019-Aug-13 12:00N 35°12' E 139°47'611.1
2019-Aug-13 11:30N 35°07' E 139°46'612.2
2019-Aug-13 11:00N 35°01' E 139°43'711.4
2019-Aug-13 10:26N 34°55' E 139°44'1510.2
2019-Aug-13 09:00N 34°48' E 140°00'12479.8 150 / 161006.410.8 24.022.622.0
2019-Aug-13 08:58N 34°54' E 140°12'8016.1
2019-Aug-13 04:00N 35°54' E 141°18'1312.9 230 / 51007.210.8 27.024.326.0
2019-Aug-13 03:00N 36°06' E 141°24'1818.0 230 / 51007.310.8 27.024.326.0
2019-Aug-13 02:00N 36°24' E 141°24'10521.0 200 / 51007.610.8 27.024.322.0
2019-Aug-12 21:00N 38°06' E 141°54'1312.9 200 / 221006.7 2.2 24.024.028.0
2019-Aug-12 20:00N 38°18' E 142°00'1918.6 230 / 151006.510.8 23.021.622.0
2019-Aug-12 19:00N 38°36' E 142°06'1312.9 210 / 171005.410.8 23.021.622.0
2019-Aug-12 18:00N 38°48' E 142°12'4221.1 230 / 151006.0 5.4 22.020.622.0
2019-Aug-12 16:00N 39°30' E 142°18'7418.6 190 / 231005.0 0.3 21.019.522.0
2019-Aug-12 12:00N 40°42' E 141°54'4422.1 320 / 81007.5 2.2 20.119.822.0
2019-Aug-12 10:00N 41°24' E 141°36'59 4.5 090 / 31007.1 0.0 20.519.824.0
2019-Aug-11 21:00N 41°18' E 140°18'4120.5 050 / 61008.8 2.2 21.018.028.0
2019-Aug-11 19:00N 41°24' E 139°24'8617.2 080 / 221006.7 5.4 21.019.527.0
2019-Aug-11 14:00N 42°48' E 139°48'64 4.0 210 / 71010.210.8 22.020.622.0
2019-Aug-10 22:00N 43°24' E 141°00'3718.5 120 / 171012.1 5.4 19.017.525.0
2019-Aug-10 20:00N 44°00' E 140°48'14314.3 080 / 101012.0 2.2 19.015.924.0
2019-Aug-10 10:00N 46°06' E 142°24'   080 / 191015.210.8 15.412.018.0
Track history (hours):
 
Tides and Currents Weather Stations Pressure Air Temp Water Temp Dewpoint Dewpoint Depression Visibility Wind Speed Wind Dir Waves Ship Positions

Maasdam

Operator: Holland America Line

Last reported at 2019-Aug-19 20:00 UTC. Time now 2019-Aug-20 09:31 UTC.
Position N 36°24' E 135°42'.

Type: Passenger vessel. MMSI: 244958000.

Wind from 180 at 18 knots

Barometer 1009.9 mb
Air temperature 24.0 ° C
Visibility: greater than 10.8 NM
Dewpoint 22.6 ° C
Water temperature 24.0 ° C

Date/timePositionNaut miles runAvg speedWind from/ knotsBaromVisibWave heightAir tempDewpointWater temp
2019-Aug-19 20:00N 36°24' E 135°42'1111.4 180 / 181009.910.8 24.022.624.0
2019-Aug-19 19:00N 36°18' E 135°30'1514.5 170 / 131009.810.8 24.022.624.0
2019-Aug-19 18:00N 36°18' E 135°12'1615.7 170 / 131009.410.8 24.022.624.0
2019-Aug-19 17:00N 36°12' E 134°54'1111.4 100 / 81009.810.8 24.022.624.0
2019-Aug-19 16:00N 36°06' E 134°42'3514.1 110 / 71009.610.8 24.022.624.0
2019-Aug-19 13:30N 35°58' E 133°60'15216.0
2019-Aug-19 04:00N 34°42' E 131°18'1211.6 090 / 101009.110.8 25.022.224.0
2019-Aug-19 03:00N 34°36' E 131°06'1211.6 060 / 71009.610.8 26.023.224.0
2019-Aug-19 02:00N 34°30' E 130°54'7010.0 100 / 61009.610.8 28.023.927.0
2019-Aug-18 19:00N 33°36' E 131°48'1918.7 090 / 101007.810.8 24.021.124.0
2019-Aug-18 18:00N 33°18' E 131°54'90 4.3 090 / 61008.110.8 24.021.124.0
2019-Aug-17 21:00N 33°24' E 133°42'36 8.9 320 / 51006.4 5.4 24.022.631.0
2019-Aug-17 17:00N 33°18' E 134°24'5170.2 240 / 131005.510.8 25.022.228.0
2019-Aug-17 16:58N 33°22' E 134°27'814.7
2019-Aug-17 16:24N 33°29' E 134°34'2 5.8
2019-Aug-17 16:00N 33°30' E 134°36'826.7 210 / 141005.410.8 25.022.228.0
2019-Aug-17 15:41N 33°37' E 134°42'314.7
2019-Aug-17 15:30N 33°39' E 134°44'814.5
2019-Aug-17 14:59N 33°44' E 134°51'714.4
2019-Aug-17 14:30N 33°50' E 134°56'814.8
2019-Aug-17 13:59N 33°57' E 134°55'714.6
2019-Aug-17 13:30N 34°04' E 134°55'714.3
2019-Aug-17 13:01N 34°11' E 134°57'611.5
2019-Aug-17 12:30N 34°17' E 134°59'510.5
2019-Aug-17 12:00N 34°22' E 135°00'714.6
2019-Aug-17 11:30N 34°27' E 135°06'816.0
2019-Aug-17 11:00N 34°33' E 135°13'612.7
2019-Aug-17 10:30N 34°39' E 135°16'4 7.2
2019-Aug-17 10:00N 34°41' E 135°12'0 0.2
2019-Aug-17 09:28N 34°41' E 135°12'0 0.0
2019-Aug-17 08:58N 34°41' E 135°12'0 0.0
2019-Aug-17 08:28N 34°41' E 135°12'0 0.0
2019-Aug-17 07:58N 34°41' E 135°12'0 0.0
2019-Aug-17 07:28N 34°41' E 135°12'0 0.0
2019-Aug-17 06:58N 34°41' E 135°12'0 0.0
2019-Aug-17 06:28N 34°41' E 135°12'0 0.0
2019-Aug-17 05:58N 34°41' E 135°12'0 0.0
2019-Aug-17 05:22N 34°41' E 135°12'0 0.0
2019-Aug-17 04:58N 34°41' E 135°12'0 0.0
2019-Aug-17 04:22N 34°41' E 135°12'0 0.0
2019-Aug-17 03:58N 34°41' E 135°12'0 0.0
2019-Aug-17 03:28N 34°41' E 135°12'0 0.0
2019-Aug-17 02:58N 34°41' E 135°12'0 0.0
2019-Aug-17 02:28N 34°41' E 135°12'0 0.0
2019-Aug-17 01:58N 34°41' E 135°12'0 0.0
2019-Aug-17 01:28N 34°41' E 135°12'0 0.0
2019-Aug-17 00:58N 34°41' E 135°12'0 0.0
2019-Aug-17 00:28N 34°41' E 135°12'0 0.0
2019-Aug-17 00:00N 34°41' E 135°12'0 0.0
2019-Aug-16 23:30N 34°41' E 135°12'0 0.0
2019-Aug-16 23:00N 34°41' E 135°12'0 0.0
2019-Aug-16 22:30N 34°41' E 135°12'2 5.0
2019-Aug-16 22:00N 34°40' E 135°15'5 9.0
2019-Aug-16 21:30N 34°36' E 135°16'815.4
2019-Aug-16 21:00N 34°30' E 135°11'815.4
2019-Aug-16 20:30N 34°24' E 135°05'815.5
2019-Aug-16 20:00N 34°18' E 134°59'157.3
2019-Aug-16 20:00N 34°18' E 135°00'816.6 190 / 151003.2 2.2 25.023.628.0
2019-Aug-16 19:30N 34°10' E 134°59'612.4
2019-Aug-16 19:00N 34°04' E 134°58'713.2
2019-Aug-16 18:30N 33°57' E 134°57'1213.6
2019-Aug-16 17:35N 33°45' E 134°60'2616.2
2019-Aug-16 16:00N 33°24' E 135°18'19114.7 220 / 171002.410.8 26.024.628.0
2019-Aug-16 03:00N 34°30' E 138°54'4012.4 200 / 301000.310.8 27.025.728.0
2019-Aug-15 23:48N 34°57' E 139°30'514.1
2019-Aug-15 23:27N 34°60' E 139°34'714.9
2019-Aug-15 23:00N 35°04' E 139°41'714.1
2019-Aug-15 22:30N 35°10' E 139°45'713.3
2019-Aug-15 22:00N 35°17' E 139°45'611.8
2019-Aug-15 21:30N 35°22' E 139°42'611.1
2019-Aug-15 21:00N 35°27' E 139°45'0 0.5
2019-Aug-15 20:29N 35°27' E 139°45'0 0.0
2019-Aug-15 19:59N 35°27' E 139°45'0 0.0
2019-Aug-15 19:26N 35°27' E 139°45'4 8.5
2019-Aug-15 19:00N 35°24' E 139°42'4619.2 180 / 40998.310.8 26.024.625.0
2019-Aug-15 18:59N 35°27' E 139°45'0 0.0
2019-Aug-15 18:29N 35°27' E 139°45'4 7.7
2019-Aug-15 18:00N 35°24' E 139°42'4618.4 180 / 30998.610.8 26.023.226.0
2019-Aug-15 17:59N 35°27' E 139°45'0 0.0
2019-Aug-15 17:29N 35°27' E 139°45'4 7.7
2019-Aug-15 17:00N 35°24' E 139°42'4619.9 180 / 35998.510.8 26.024.627.0
2019-Aug-15 16:59N 35°27' E 139°45'0 0.0
2019-Aug-15 16:29N 35°27' E 139°45'0 0.0
2019-Aug-15 15:59N 35°27' E 139°45'0 0.1
2019-Aug-15 15:29N 35°27' E 139°45'0 0.1
2019-Aug-15 14:59N 35°27' E 139°45'0 0.0
2019-Aug-15 14:29N 35°27' E 139°45'0 0.0
2019-Aug-15 13:59N 35°27' E 139°45'0 0.0
2019-Aug-15 13:29N 35°27' E 139°45'0 0.0
2019-Aug-15 12:59N 35°27' E 139°45'0 0.0
2019-Aug-15 12:29N 35°27' E 139°45'0 0.0
2019-Aug-15 11:59N 35°27' E 139°45'0 0.0
2019-Aug-15 11:29N 35°27' E 139°45'0 0.0
2019-Aug-15 10:59N 35°27' E 139°45'0 0.0
2019-Aug-15 10:29N 35°27' E 139°45'0 0.0
2019-Aug-15 09:59N 35°27' E 139°45'0 0.0
2019-Aug-15 09:29N 35°27' E 139°45'0 0.1
2019-Aug-15 08:59N 35°27' E 139°45'0 0.0
2019-Aug-15 08:29N 35°27' E 139°45'0 0.1
2019-Aug-15 07:59N 35°27' E 139°45'0 0.2
2019-Aug-15 07:29N 35°27' E 139°45'0 0.2
2019-Aug-15 06:59N 35°27' E 139°45'0 0.0
2019-Aug-15 06:29N 35°27' E 139°45'0 0.0
2019-Aug-15 05:59N 35°27' E 139°45'0 0.3
2019-Aug-15 05:30N 35°27' E 139°45'1 1.9
2019-Aug-15 04:58N 35°27' E 139°44'0 0.1
2019-Aug-15 04:28N 35°27' E 139°44'0 0.1
2019-Aug-15 03:58N 35°27' E 139°44'0 0.1
2019-Aug-15 03:28N 35°27' E 139°44'3 6.0
2019-Aug-15 03:00N 35°24' E 139°42'338.9 200 / 301003.510.8 28.025.329.0
2019-Aug-15 02:55N 35°27' E 139°44'0 0.0
2019-Aug-15 02:28N 35°27' E 139°44'3 6.0
2019-Aug-15 02:00N 35°24' E 139°42'3119.3 190 / 251003.810.8 28.025.329.0
2019-Aug-15 01:58N 35°27' E 139°44'0 0.0
2019-Aug-15 01:28N 35°26' E 139°44'0 0.1
2019-Aug-15 00:55N 35°27' E 139°44'0 0.1
2019-Aug-15 00:28N 35°27' E 139°44'0 0.0
2019-Aug-14 23:58N 35°27' E 139°44'0 0.1
2019-Aug-14 23:28N 35°27' E 139°44'0 0.1
2019-Aug-14 22:58N 35°27' E 139°44'0 0.0
2019-Aug-14 22:28N 35°27' E 139°44'0 0.1
2019-Aug-14 21:58N 35°27' E 139°44'0 0.0
2019-Aug-14 21:28N 35°27' E 139°44'0 0.0
2019-Aug-14 20:55N 35°27' E 139°44'0 0.0
2019-Aug-14 20:25N 35°27' E 139°44'0 0.0
2019-Aug-14 19:58N 35°27' E 139°44'0 0.0
2019-Aug-14 19:28N 35°27' E 139°44'3 6.0
2019-Aug-14 19:00N 35°24' E 139°42'3120.5 200 / 201004.910.8 27.024.329.0
2019-Aug-14 18:58N 35°27' E 139°44'0 0.0
2019-Aug-14 18:28N 35°27' E 139°44'3 6.0
2019-Aug-14 18:00N 35°24' E 139°42'3120.5 200 / 201005.010.8 27.024.329.0
2019-Aug-14 17:58N 35°27' E 139°44'0 0.0
2019-Aug-14 17:28N 35°27' E 139°44'0 0.0
2019-Aug-14 16:58N 35°27' E 139°44'0 0.0
2019-Aug-14 16:28N 35°27' E 139°44'0 0.0
2019-Aug-14 15:58N 35°27' E 139°44'0 0.0
2019-Aug-14 15:28N 35°27' E 139°44'0 0.0
2019-Aug-14 14:58N 35°27' E 139°44'0 0.0
2019-Aug-14 14:25N 35°27' E 139°44'0 0.0
2019-Aug-14 13:58N 35°27' E 139°44'1 1.9
2019-Aug-14 13:30N 35°26' E 139°43'3 6.3
2019-Aug-14 13:00N 35°27' E 139°39'0 0.2
2019-Aug-14 12:29N 35°27' E 139°39'0 0.0
2019-Aug-14 11:59N 35°27' E 139°39'0 0.0
2019-Aug-14 11:29N 35°27' E 139°39'0 0.0
2019-Aug-14 10:56N 35°27' E 139°39'0 0.0
2019-Aug-14 10:29N 35°27' E 139°39'0 0.0
2019-Aug-14 09:59N 35°27' E 139°39'0 0.0
2019-Aug-14 09:29N 35°27' E 139°39'0 0.0
2019-Aug-14 08:59N 35°27' E 139°39'0 0.0
2019-Aug-14 08:29N 35°27' E 139°39'0 0.0
2019-Aug-14 07:59N 35°27' E 139°39'0 0.0
2019-Aug-14 07:29N 35°27' E 139°39'0 0.0
2019-Aug-14 06:59N 35°27' E 139°39'0 0.0
2019-Aug-14 06:29N 35°27' E 139°39'0 0.0
2019-Aug-14 05:59N 35°27' E 139°39'0 0.0
2019-Aug-14 05:26N 35°27' E 139°39'0 0.0
2019-Aug-14 04:59N 35°27' E 139°39'0 0.0
2019-Aug-14 04:29N 35°27' E 139°39'0 0.0
2019-Aug-14 03:59N 35°27' E 139°39'0 0.0
2019-Aug-14 03:29N 35°27' E 139°39'0 0.0
2019-Aug-14 02:59N 35°27' E 139°39'0 0.0
2019-Aug-14 02:29N 35°27' E 139°39'0 0.0
2019-Aug-14 01:59N 35°27' E 139°39'0 0.0
2019-Aug-14 01:29N 35°27' E 139°39'0 0.0
2019-Aug-14 00:59N 35°27' E 139°39'0 0.0
2019-Aug-14 00:29N 35°27' E 139°39'0 0.0
2019-Aug-13 23:59N 35°27' E 139°39'0 0.0
2019-Aug-13 23:29N 35°27' E 139°39'0 0.0
2019-Aug-13 22:59N 35°27' E 139°39'0 0.0
2019-Aug-13 22:29N 35°27' E 139°39'0 0.0
2019-Aug-13 21:59N 35°27' E 139°39'0 0.0
2019-Aug-13 21:29N 35°27' E 139°39'0 0.0
2019-Aug-13 20:59N 35°27' E 139°39'0 0.0
2019-Aug-13 20:29N 35°27' E 139°39'0 0.0
2019-Aug-13 19:59N 35°27' E 139°39'0 0.0
2019-Aug-13 19:29N 35°27' E 139°39'0 0.0
2019-Aug-13 18:59N 35°27' E 139°39'0 0.0
2019-Aug-13 18:29N 35°27' E 139°39'0 0.0
2019-Aug-13 17:59N 35°27' E 139°39'0 0.0
2019-Aug-13 17:29N 35°27' E 139°39'0 0.0
2019-Aug-13 16:59N 35°27' E 139°39'0 0.0
2019-Aug-13 16:29N 35°27' E 139°39'0 0.0
2019-Aug-13 15:59N 35°27' E 139°39'0 0.0
2019-Aug-13 15:29N 35°27' E 139°39'0 0.0
2019-Aug-13 14:59N 35°27' E 139°39'0 0.0
2019-Aug-13 14:30N 35°27' E 139°39'1 1.4
2019-Aug-13 14:00N 35°27' E 139°40'3 6.5
2019-Aug-13 13:30N 35°26' E 139°43'3 5.6
2019-Aug-13 13:00N 35°23' E 139°43'510.7
2019-Aug-13 12:30N 35°18' E 139°45'611.6
2019-Aug-13 12:00N 35°12' E 139°47'611.1
2019-Aug-13 11:30N 35°07' E 139°46'612.2
2019-Aug-13 11:00N 35°01' E 139°43'711.4
2019-Aug-13 10:26N 34°55' E 139°44'1510.2
2019-Aug-13 09:00N 34°48' E 140°00'12479.8 150 / 161006.410.8 24.022.622.0
2019-Aug-13 08:58N 34°54' E 140°12'8016.1
2019-Aug-13 04:00N 35°54' E 141°18'1312.9 230 / 51007.210.8 27.024.326.0
2019-Aug-13 03:00N 36°06' E 141°24'1818.0 230 / 51007.310.8 27.024.326.0
2019-Aug-13 02:00N 36°24' E 141°24'10521.0 200 / 51007.610.8 27.024.322.0
2019-Aug-12 21:00N 38°06' E 141°54'1312.9 200 / 221006.7 2.2 24.024.028.0
2019-Aug-12 20:00N 38°18' E 142°00'1918.6 230 / 151006.510.8 23.021.622.0
2019-Aug-12 19:00N 38°36' E 142°06'1312.9 210 / 171005.410.8 23.021.622.0
2019-Aug-12 18:00N 38°48' E 142°12'4221.1 230 / 151006.0 5.4 22.020.622.0
2019-Aug-12 16:00N 39°30' E 142°18'7418.6 190 / 231005.0 0.3 21.019.522.0
2019-Aug-12 12:00N 40°42' E 141°54'4422.1 320 / 81007.5 2.2 20.119.822.0
2019-Aug-12 10:00N 41°24' E 141°36'59 4.5 090 / 31007.1 0.0 20.519.824.0
2019-Aug-11 21:00N 41°18' E 140°18'4120.5 050 / 61008.8 2.2 21.018.028.0
2019-Aug-11 19:00N 41°24' E 139°24'8617.2 080 / 221006.7 5.4 21.019.527.0
2019-Aug-11 14:00N 42°48' E 139°48'64 4.0 210 / 71010.210.8 22.020.622.0
2019-Aug-10 22:00N 43°24' E 141°00'3718.5 120 / 171012.1 5.4 19.017.525.0
2019-Aug-10 20:00N 44°00' E 140°48'14314.3 080 / 101012.0 2.2 19.015.924.0
2019-Aug-10 10:00N 46°06' E 142°24'   080 / 191015.210.8 15.412.018.0

Dump ship's entire track history